createdAt,value
2023-02-19T00:00:02.236Z,1.20
2023-02-19T00:05:03.959Z,1.00
2023-02-19T00:10:05.696Z,0.98
2023-02-19T00:15:07.420Z,0.82
2023-02-19T00:20:09.229Z,0.98
2023-02-19T00:25:10.677Z,1.10
2023-02-19T00:30:12.322Z,0.70
2023-02-19T00:35:13.848Z,1.13
2023-02-19T00:40:15.360Z,0.65
2023-02-19T00:45:16.888Z,0.90
2023-02-19T00:50:18.378Z,0.70
2023-02-19T00:55:19.837Z,0.80
2023-02-19T01:00:21.338Z,0.80
2023-02-19T01:05:22.805Z,1.10
2023-02-19T01:10:24.270Z,0.85
2023-02-19T01:15:25.723Z,0.88
2023-02-19T01:20:27.363Z,0.80
2023-02-19T01:25:28.833Z,1.15
2023-02-19T01:30:30.339Z,0.85
2023-02-19T01:35:31.814Z,0.70
2023-02-19T01:40:33.291Z,0.73
2023-02-19T01:45:35.455Z,0.30
2023-02-19T01:50:45.773Z,0.80
2023-02-19T01:55:47.842Z,0.70
2023-02-19T02:00:51.654Z,0.90
2023-02-19T02:06:14.758Z,1.20
2023-02-19T02:11:16.554Z,0.80
2023-02-19T02:16:45.172Z,0.80
2023-02-19T02:22:12.489Z,0.73
2023-02-19T02:27:42.922Z,0.55
2023-02-19T02:33:26.546Z,0.30
2023-02-19T02:38:29.577Z,0.90
2023-02-19T02:43:31.035Z,0.77
2023-02-19T02:48:38.379Z,1.00
2023-02-19T02:54:23.203Z,0.85
2023-02-19T02:59:26.134Z,0.88
2023-02-19T03:04:34.217Z,0.93
2023-02-19T03:09:40.583Z,0.80
2023-02-19T03:15:04.281Z,0.57
2023-02-19T03:20:07.547Z,0.40
2023-02-19T03:25:49.302Z,0.50
2023-02-19T03:30:51.679Z,0.85
2023-02-19T03:35:57.165Z,1.67
2023-02-19T03:41:04.246Z,0.93
2023-02-19T03:46:15.500Z,0.93
2023-02-19T03:51:39.182Z,0.73
2023-02-19T03:57:01.348Z,0.70
2023-02-19T04:02:36.258Z,0.82
2023-02-19T04:07:40.028Z,0.55
2023-02-19T04:12:43.521Z,0.70
2023-02-19T04:17:51.969Z,0.52
2023-02-19T04:22:53.424Z,0.63
2023-02-19T04:27:54.957Z,0.73
2023-02-19T04:32:56.431Z,0.50
2023-02-19T04:37:57.890Z,0.57
2023-02-19T04:42:59.535Z,0.63
2023-02-19T04:48:00.989Z,0.60
2023-02-19T04:53:02.464Z,0.88
2023-02-19T04:58:04.078Z,0.82
2023-02-19T05:03:05.539Z,0.40
2023-02-19T05:08:06.996Z,0.77
2023-02-19T05:13:08.570Z,0.65
2023-02-19T05:18:10.037Z,0.70
2023-02-19T05:23:11.543Z,0.90
2023-02-19T05:28:18.835Z,0.93
2023-02-19T05:33:21.824Z,0.73
2023-02-19T05:38:23.434Z,0.77
2023-02-19T05:43:24.901Z,1.00
2023-02-19T05:48:26.350Z,0.57
2023-02-19T05:53:27.806Z,0.60
2023-02-19T05:58:29.352Z,0.50
2023-02-19T06:03:30.833Z,0.57
2023-02-19T06:08:33.483Z,0.45
2023-02-19T06:13:34.954Z,0.73
2023-02-19T06:18:36.443Z,0.88
2023-02-19T06:23:38.401Z,0.88
2023-02-19T06:28:40.007Z,0.60
2023-02-19T06:33:41.498Z,0.75
2023-02-19T06:38:43.023Z,1.00
2023-02-19T06:43:44.572Z,0.50
2023-02-19T06:48:46.040Z,0.73
2023-02-19T06:53:47.507Z,0.60
2023-02-19T06:58:48.962Z,0.70
2023-02-19T07:03:51.043Z,0.45
2023-02-19T07:08:52.625Z,0.70
2023-02-19T07:13:57.734Z,0.70
2023-02-19T07:18:59.487Z,0.60
2023-02-19T07:24:00.943Z,0.70
2023-02-19T07:29:02.400Z,0.40
2023-02-19T07:34:03.852Z,0.70
2023-02-19T07:39:05.324Z,0.80
2023-02-19T07:44:06.830Z,0.80
2023-02-19T07:49:08.337Z,0.88
2023-02-19T07:54:09.836Z,0.90
2023-02-19T07:59:11.771Z,1.27
2023-02-19T08:04:13.735Z,1.20
2023-02-19T08:09:15.183Z,0.80
2023-02-19T08:14:16.642Z,1.05
2023-02-19T08:19:18.191Z,1.65
2023-02-19T08:24:19.657Z,1.70
2023-02-19T08:29:21.126Z,2.58
2023-02-19T08:34:22.583Z,1.17
2023-02-19T08:39:24.132Z,1.30
2023-02-19T08:44:25.680Z,0.88
2023-02-19T08:49:27.259Z,1.00
2023-02-19T08:54:29.003Z,1.17
2023-02-19T08:59:30.717Z,6.93
2023-02-19T09:04:32.205Z,7.95
2023-02-19T09:09:34.066Z,6.38
2023-02-19T09:14:35.554Z,1.45
2023-02-19T09:19:37.055Z,1.30
2023-02-19T09:24:38.519Z,0.80
2023-02-19T09:29:39.998Z,1.10
2023-02-19T09:34:41.698Z,0.63
2023-02-19T09:39:43.162Z,0.90
2023-02-19T09:44:47.957Z,0.82
2023-02-19T09:49:52.066Z,1.13
2023-02-19T09:54:57.570Z,0.90
2023-02-19T10:00:26.730Z,0.60
2023-02-19T10:05:28.307Z,1.10
2023-02-19T10:10:33.077Z,2.40
2023-02-19T10:15:49.434Z,1.80
2023-02-19T10:20:51.370Z,1.58
2023-02-19T10:25:54.621Z,1.80
2023-02-19T10:35:59.716Z,0.80
2023-02-19T10:41:13.139Z,0.90
2023-02-19T10:46:28.326Z,1.77
2023-02-19T10:51:39.472Z,1.00
2023-02-19T10:56:42.032Z,0.70
2023-02-19T11:01:59.748Z,1.05
2023-02-19T11:07:19.295Z,0.70
2023-02-19T11:12:26.794Z,0.60
2023-02-19T11:17:29.134Z,0.80
2023-02-19T11:22:37.993Z,1.40
2023-02-19T11:27:54.337Z,0.80
2023-02-19T11:32:56.395Z,1.00
2023-02-19T11:37:59.248Z,1.23
2023-02-19T11:43:23.407Z,1.15
2023-02-19T11:48:36.239Z,1.05
2023-02-19T11:53:42.132Z,0.73
2023-02-19T11:59:18.794Z,0.80
2023-02-19T12:04:38.717Z,0.70
2023-02-19T12:10:02.634Z,0.80
2023-02-19T12:15:44.193Z,0.63
2023-02-19T12:21:04.359Z,2.03
2023-02-19T12:26:17.804Z,1.05
2023-02-19T12:31:27.929Z,0.93
2023-02-19T12:37:07.015Z,1.23
2023-02-19T12:42:14.812Z,1.02
2023-02-19T12:47:23.421Z,1.00
2023-02-19T12:52:26.365Z,1.27
2023-02-19T12:57:30.026Z,0.77
2023-02-19T13:02:48.586Z,1.77
2023-02-19T13:07:56.959Z,0.80
2023-02-19T13:13:00.003Z,0.80
2023-02-19T13:23:31.138Z,0.70
2023-02-19T13:28:42.488Z,1.02
2023-02-19T13:34:20.429Z,1.48
2023-02-19T13:39:21.925Z,0.90
2023-02-19T13:44:25.733Z,0.90
2023-02-19T13:49:33.863Z,0.82
2023-02-19T13:54:39.857Z,1.27
2023-02-19T13:59:41.587Z,0.80
2023-02-19T14:05:00.350Z,0.82
2023-02-19T14:10:02.151Z,1.10
2023-02-19T14:15:40.335Z,1.30
2023-02-19T14:20:43.488Z,0.70
2023-02-19T14:25:50.222Z,0.63
2023-02-19T14:30:58.381Z,1.08
2023-02-19T14:36:05.806Z,1.23
2023-02-19T14:41:07.308Z,1.00
2023-02-19T14:46:29.367Z,1.05
2023-02-19T14:51:36.471Z,0.82
2023-02-19T14:56:37.924Z,1.65
2023-02-19T15:01:39.662Z,1.02
2023-02-19T15:06:41.229Z,0.95
2023-02-19T15:11:42.701Z,1.42
2023-02-19T15:16:44.150Z,0.73
2023-02-19T15:21:47.147Z,0.75
2023-02-19T15:26:54.109Z,0.63
2023-02-19T15:31:57.242Z,0.68
2023-02-19T15:37:01.053Z,1.00
2023-02-19T15:42:03.048Z,1.10
2023-02-19T15:47:08.857Z,0.82
2023-02-19T15:52:11.423Z,0.85
2023-02-19T15:57:16.660Z,1.08
2023-02-19T16:02:18.101Z,1.00
2023-02-19T16:07:32.493Z,0.95
2023-02-19T16:12:33.968Z,1.50
2023-02-19T16:17:35.443Z,1.10
2023-02-19T16:22:40.977Z,1.05
2023-02-19T16:27:42.538Z,1.65
2023-02-19T16:32:47.132Z,0.95
2023-02-19T16:37:58.557Z,1.00
2023-02-19T16:43:13.897Z,1.70
2023-02-19T16:48:15.348Z,1.20
2023-02-19T16:53:21.225Z,0.73
2023-02-19T16:58:22.698Z,1.15
2023-02-19T17:03:24.715Z,1.08
2023-02-19T17:08:34.390Z,1.00
2023-02-19T17:13:35.889Z,0.98
2023-02-19T17:18:37.593Z,0.95
2023-02-19T17:23:39.132Z,1.15
2023-02-19T17:28:41.519Z,1.05
2023-02-19T17:33:43.376Z,1.58
2023-02-19T17:38:45.010Z,1.83
2023-02-19T17:43:47.456Z,1.20
2023-02-19T17:48:49.186Z,1.02
2023-02-19T17:53:50.691Z,1.00
2023-02-19T17:58:52.482Z,1.42
2023-02-19T18:03:54.022Z,1.10
2023-02-19T18:08:55.527Z,2.05
2023-02-19T18:13:57.021Z,1.10
2023-02-19T18:19:01.387Z,1.85
2023-02-19T18:24:02.843Z,1.30
2023-02-19T18:29:05.146Z,1.05
2023-02-19T18:34:07.517Z,1.08
2023-02-19T18:39:08.981Z,1.45
2023-02-19T18:44:10.448Z,1.00
2023-02-19T18:49:11.924Z,1.50
2023-02-19T18:54:13.406Z,1.40
2023-02-19T18:59:15.056Z,1.70
2023-02-19T19:04:16.663Z,2.13
2023-02-19T19:09:18.193Z,1.25
2023-02-19T19:14:19.699Z,1.40
2023-02-19T19:19:21.189Z,2.20
2023-02-19T19:24:23.071Z,1.80
2023-02-19T19:29:24.562Z,1.90
2023-02-19T19:34:26.105Z,2.17
2023-02-19T19:39:27.580Z,1.58
2023-02-19T19:44:29.110Z,1.45
2023-02-19T19:49:30.573Z,2.00
2023-02-19T19:54:32.120Z,2.15
2023-02-19T19:59:33.575Z,1.95
2023-02-19T20:04:35.291Z,2.47
2023-02-19T20:09:36.793Z,1.70
2023-02-19T20:14:38.271Z,1.90
2023-02-19T20:19:39.841Z,5.75
2023-02-19T20:24:41.311Z,7.90
2023-02-19T20:29:44.506Z,6.63
2023-02-19T20:34:46.317Z,5.28
2023-02-19T20:39:47.801Z,4.53
2023-02-19T20:44:49.246Z,2.58
2023-02-19T20:49:51.763Z,2.58
2023-02-19T20:54:56.557Z,2.17
2023-02-19T20:59:58.036Z,2.40
2023-02-19T21:04:59.782Z,1.58
2023-02-19T21:10:01.238Z,1.92
2023-02-19T21:15:02.691Z,1.77
2023-02-19T21:20:04.394Z,1.45
2023-02-19T21:25:06.108Z,1.50
2023-02-19T21:30:08.054Z,1.80
2023-02-19T21:35:09.622Z,1.33
2023-02-19T21:40:12.111Z,1.30
2023-02-19T21:45:13.618Z,1.73
2023-02-19T21:50:15.060Z,1.45
2023-02-19T21:55:16.510Z,2.05
2023-02-19T22:00:18.159Z,2.40
2023-02-19T22:05:19.623Z,1.25
2023-02-19T22:10:21.471Z,1.80
2023-02-19T22:15:22.929Z,1.63
2023-02-19T22:20:24.395Z,1.85
2023-02-19T22:25:25.855Z,1.95
2023-02-19T22:30:27.411Z,2.30
2023-02-19T22:35:29.078Z,2.17
2023-02-19T22:40:30.552Z,2.30
2023-02-19T22:45:32.039Z,2.13
2023-02-19T22:50:33.528Z,2.10
2023-02-19T22:55:35.077Z,2.15
2023-02-19T23:00:36.553Z,2.20
2023-02-19T23:05:38.018Z,2.22
2023-02-19T23:10:40.871Z,2.88
2023-02-19T23:15:42.349Z,2.17
2023-02-19T23:20:43.808Z,2.40
2023-02-19T23:25:45.255Z,2.92
2023-02-19T23:30:46.849Z,2.75
2023-02-19T23:35:48.344Z,3.45
2023-02-19T23:40:49.825Z,3.03
2023-02-19T23:45:51.284Z,3.13
2023-02-19T23:50:52.755Z,3.63
2023-02-19T23:55:54.218Z,2.60
